createdAt,value
2017-04-03T00:00:12.330Z,13.37
2017-04-03T00:00:53.217Z,13.33
2017-04-03T00:01:34.099Z,13.39
2017-04-03T00:02:14.982Z,13.3
2017-04-03T00:02:55.876Z,13.27
2017-04-03T00:03:36.753Z,13.31
2017-04-03T00:04:17.633Z,13.27
2017-04-03T00:04:58.521Z,13.25
2017-04-03T00:05:39.401Z,13.25
2017-04-03T00:06:20.281Z,13.15
2017-04-03T00:07:01.158Z,13.16
2017-04-03T00:07:42.047Z,13.28
2017-04-03T00:08:22.960Z,13.37
2017-04-03T00:09:03.820Z,13.33
2017-04-03T00:09:44.703Z,13.23
2017-04-03T00:10:25.588Z,13.27
2017-04-03T00:11:06.475Z,13.28
2017-04-03T00:11:47.355Z,13.16
2017-04-03T00:12:28.235Z,13.18
2017-04-03T00:13:09.119Z,13.27
2017-04-03T00:13:50.005Z,13.18
2017-04-03T00:14:30.890Z,13.23
2017-04-03T00:15:11.767Z,13.22
2017-04-03T00:15:52.649Z,13.23
2017-04-03T00:16:33.531Z,13.16
2017-04-03T00:17:14.416Z,13.19
2017-04-03T00:17:55.293Z,13.27
2017-04-03T00:18:36.181Z,13.16
2017-04-03T00:19:17.078Z,13.19
2017-04-03T00:19:57.981Z,13.11
2017-04-03T00:20:38.864Z,13.11
2017-04-03T00:21:19.749Z,13.08
2017-04-03T00:22:00.633Z,13.12
2017-04-03T00:22:41.533Z,13.11
2017-04-03T00:23:22.412Z,13.16
2017-04-03T00:24:03.286Z,13.27
2017-04-03T00:24:44.165Z,13.15
2017-04-03T00:25:25.053Z,13.28
2017-04-03T00:26:05.945Z,13.13
2017-04-03T00:26:46.857Z,13.08
2017-04-03T00:27:27.747Z,12.97
2017-04-03T00:28:08.630Z,12.94
2017-04-03T00:28:49.517Z,12.98
2017-04-03T00:29:30.397Z,13.03
2017-04-03T00:30:11.284Z,12.95
2017-04-03T00:30:52.172Z,12.91
2017-04-03T00:31:33.054Z,12.91
2017-04-03T00:32:13.945Z,12.95
2017-04-03T00:32:54.832Z,12.91
2017-04-03T00:33:35.718Z,12.95
2017-04-03T00:34:16.601Z,13.04
2017-04-03T00:34:57.481Z,13.05
2017-04-03T00:35:38.364Z,13
2017-04-03T00:36:19.247Z,12.97
2017-04-03T00:37:00.161Z,12.94
2017-04-03T00:37:41.041Z,12.95
2017-04-03T00:38:21.926Z,12.93
2017-04-03T00:39:02.811Z,13
2017-04-03T00:39:43.693Z,12.97
2017-04-03T00:40:24.584Z,12.94
2017-04-03T00:41:05.459Z,13
2017-04-03T00:41:46.342Z,12.9
2017-04-03T00:42:27.227Z,12.91
2017-04-03T00:43:08.117Z,12.85
2017-04-03T00:43:49.009Z,12.83
2017-04-03T00:44:29.881Z,12.93
2017-04-03T00:45:10.765Z,12.87
2017-04-03T00:45:51.650Z,12.86
2017-04-03T00:46:32.520Z,12.93
2017-04-03T00:47:13.398Z,12.9
2017-04-03T00:47:54.282Z,12.85
2017-04-03T00:48:35.170Z,12.87
2017-04-03T00:49:16.062Z,13.01
2017-04-03T00:49:56.940Z,13
2017-04-03T00:50:37.825Z,12.97
2017-04-03T00:51:18.732Z,12.98
2017-04-03T00:51:59.619Z,12.9
2017-04-03T00:52:40.509Z,12.87
2017-04-03T00:53:21.449Z,12.9
2017-04-03T00:54:02.353Z,12.8
2017-04-03T00:54:43.247Z,12.9
2017-04-03T00:55:24.107Z,12.82
2017-04-03T00:56:04.996Z,12.76
2017-04-03T00:56:45.888Z,12.83
2017-04-03T00:57:26.771Z,12.8
2017-04-03T00:58:07.658Z,12.86
2017-04-03T00:58:48.547Z,12.85
2017-04-03T00:59:29.433Z,12.79
2017-04-03T01:00:10.314Z,12.85
2017-04-03T01:00:51.205Z,12.75
2017-04-03T01:01:32.098Z,12.67
2017-04-03T01:02:12.982Z,12.67
2017-04-03T01:02:53.868Z,12.68
2017-04-03T01:03:34.751Z,12.8
2017-04-03T01:04:15.653Z,12.83
2017-04-03T01:04:56.554Z,12.83
2017-04-03T01:05:37.446Z,12.86
2017-04-03T01:06:18.328Z,12.76
2017-04-03T01:06:59.206Z,12.65
2017-04-03T01:07:40.094Z,12.64
2017-04-03T01:08:20.980Z,12.5
2017-04-03T01:09:01.877Z,12.64
2017-04-03T01:09:42.771Z,12.64
2017-04-03T01:10:23.655Z,12.67
2017-04-03T01:11:04.535Z,12.67
2017-04-03T01:11:45.411Z,12.61
2017-04-03T01:12:26.303Z,12.58
2017-04-03T01:13:07.188Z,12.5
2017-04-03T01:13:48.069Z,12.54
2017-04-03T01:14:28.948Z,12.49
2017-04-03T01:15:09.830Z,12.43
2017-04-03T01:15:50.716Z,12.47
2017-04-03T01:16:31.596Z,12.47
2017-04-03T01:17:12.473Z,12.4
2017-04-03T01:17:53.351Z,12.49
2017-04-03T01:18:34.244Z,12.49
2017-04-03T01:19:15.130Z,12.46
2017-04-03T01:19:55.994Z,12.55
2017-04-03T01:20:36.876Z,12.5
2017-04-03T01:21:17.761Z,12.36
2017-04-03T01:21:58.639Z,12.4
2017-04-03T01:22:39.531Z,12.39
2017-04-03T01:23:20.398Z,12.31
2017-04-03T01:24:01.284Z,12.37
2017-04-03T01:24:42.168Z,12.46
2017-04-03T01:25:23.045Z,12.4
2017-04-03T01:26:03.919Z,12.45
2017-04-03T01:26:44.799Z,12.45
2017-04-03T01:27:25.690Z,12.32
2017-04-03T01:28:06.569Z,12.37
2017-04-03T01:28:47.449Z,12.35
2017-04-03T01:29:28.337Z,12.39
2017-04-03T01:30:09.222Z,12.39
2017-04-03T01:30:50.103Z,12.37
2017-04-03T01:31:30.985Z,12.53
2017-04-03T01:32:11.865Z,12.37
2017-04-03T01:32:52.742Z,12.37
2017-04-03T01:33:33.636Z,12.35
2017-04-03T01:34:14.515Z,12.37
2017-04-03T01:34:55.401Z,12.4
2017-04-03T01:35:36.280Z,12.37
2017-04-03T01:36:17.162Z,12.35
2017-04-03T01:36:58.044Z,12.29
2017-04-03T01:37:38.909Z,12.35
2017-04-03T01:38:19.792Z,12.39
2017-04-03T01:39:00.679Z,12.53
2017-04-03T01:39:41.565Z,12.42
2017-04-03T01:40:22.462Z,12.43
2017-04-03T01:42:11.718Z,12.42
2017-04-03T01:42:52.598Z,12.37
2017-04-03T01:43:33.485Z,12.36
2017-04-03T01:44:14.374Z,12.37
2017-04-03T01:44:55.245Z,12.4
2017-04-03T01:45:36.127Z,12.37
2017-04-03T01:46:17.010Z,12.29
2017-04-03T01:46:57.889Z,12.32
2017-04-03T01:47:38.769Z,12.21
2017-04-03T01:48:19.637Z,12.28
2017-04-03T01:49:00.523Z,12.22
2017-04-03T01:49:41.401Z,12.15
2017-04-03T01:50:22.284Z,12.21
2017-04-03T01:51:03.162Z,12.06
2017-04-03T01:51:44.042Z,12.02
2017-04-03T01:52:24.918Z,12.12
2017-04-03T01:53:05.807Z,12.25
2017-04-03T01:53:46.691Z,12.32
2017-04-03T01:54:27.572Z,12.24
2017-04-03T01:55:08.455Z,12.13
2017-04-03T01:55:49.336Z,12.21
2017-04-03T01:56:30.239Z,12.18
2017-04-03T01:57:11.104Z,12.24
2017-04-03T01:57:51.987Z,12.12
2017-04-03T01:58:32.871Z,12.15
2017-04-03T01:59:13.749Z,12.17
2017-04-03T01:59:54.637Z,12.15
2017-04-03T02:00:35.525Z,12.07
2017-04-03T02:01:16.435Z,12.15
2017-04-03T02:01:57.316Z,12.21
2017-04-03T02:02:38.197Z,12.25
2017-04-03T02:03:19.094Z,12.36
2017-04-03T02:03:59.972Z,12.36
2017-04-03T02:04:40.849Z,12.37
2017-04-03T02:05:21.733Z,12.4
2017-04-03T02:06:02.615Z,12.37
2017-04-03T02:06:43.499Z,12.29
2017-04-03T02:07:24.368Z,12.31
2017-04-03T02:08:05.245Z,12.27
2017-04-03T02:08:46.142Z,12.31
2017-04-03T02:09:27.023Z,12.25
2017-04-03T02:10:07.898Z,12.02
2017-04-03T02:10:48.781Z,12.07
2017-04-03T02:11:29.664Z,12.17
2017-04-03T02:12:10.554Z,12.27
2017-04-03T02:12:51.432Z,12.18
2017-04-03T02:13:32.306Z,12.2
2017-04-03T02:14:13.190Z,12.24
2017-04-03T02:14:54.079Z,12.21
2017-04-03T02:15:34.964Z,12.24
2017-04-03T02:16:15.844Z,12.21
2017-04-03T02:16:56.733Z,12.09
2017-04-03T02:17:37.613Z,12.04
2017-04-03T02:18:18.494Z,12.07
2017-04-03T02:18:59.375Z,11.94
2017-04-03T02:19:40.255Z,12.1
2017-04-03T02:20:21.168Z,12.12
2017-04-03T02:21:02.059Z,11.97
2017-04-03T02:21:42.955Z,12.06
2017-04-03T02:22:23.842Z,12.07
2017-04-03T02:23:04.727Z,12.09
2017-04-03T02:23:45.612Z,12.15
2017-04-03T02:24:26.498Z,12.15
2017-04-03T02:25:07.379Z,12.04
2017-04-03T02:25:48.262Z,12.02
2017-04-03T02:26:29.141Z,12.03
2017-04-03T02:27:10.031Z,12.04
2017-04-03T02:27:50.909Z,12.13
2017-04-03T02:28:31.790Z,12.17
2017-04-03T02:29:12.677Z,12.18
2017-04-03T02:29:53.556Z,12.07
2017-04-03T02:30:34.442Z,12.04
2017-04-03T02:31:15.319Z,12.03
2017-04-03T02:31:56.222Z,12.03
2017-04-03T02:32:37.125Z,11.95
2017-04-03T02:33:17.977Z,12.07
2017-04-03T02:33:58.854Z,12.03
2017-04-03T02:34:39.737Z,12.12
2017-04-03T02:35:20.615Z,11.94
2017-04-03T02:36:01.509Z,12.02
2017-04-03T02:36:42.379Z,12.03
2017-04-03T02:37:23.273Z,12.03
2017-04-03T02:38:04.155Z,12.04
2017-04-03T02:38:45.043Z,12.04
2017-04-03T02:39:25.920Z,11.97
2017-04-03T02:40:06.802Z,11.8
2017-04-03T02:40:47.698Z,11.95
2017-04-03T02:41:28.580Z,11.95
2017-04-03T02:42:09.456Z,11.88
2017-04-03T02:42:50.339Z,11.81
2017-04-03T02:43:31.235Z,11.81
2017-04-03T02:44:12.112Z,11.77
2017-04-03T02:44:52.989Z,11.73
2017-04-03T02:45:33.870Z,11.69
2017-04-03T02:46:14.764Z,11.75
2017-04-03T02:46:55.639Z,11.81
2017-04-03T02:47:36.519Z,11.95
2017-04-03T02:48:17.405Z,11.81
2017-04-03T02:48:58.297Z,11.8
2017-04-03T02:49:39.192Z,11.65
2017-04-03T02:50:20.087Z,11.54
2017-04-03T02:51:00.973Z,11.55
2017-04-03T02:51:41.841Z,11.55
2017-04-03T02:52:22.728Z,11.54
2017-04-03T02:53:03.614Z,11.6
2017-04-03T02:53:44.508Z,11.73
2017-04-03T02:54:25.388Z,11.72
2017-04-03T02:55:06.262Z,11.65
2017-04-03T02:55:47.147Z,11.7
2017-04-03T02:56:28.039Z,11.6
2017-04-03T02:57:08.916Z,11.59
2017-04-03T02:57:49.801Z,11.41
2017-04-03T02:58:30.687Z,11.5
2017-04-03T02:59:11.559Z,11.37
2017-04-03T02:59:52.442Z,11.45
2017-04-03T03:00:33.320Z,11.37
2017-04-03T03:01:14.202Z,11.4
2017-04-03T03:01:55.108Z,11.51
2017-04-03T03:02:35.987Z,11.48
2017-04-03T03:03:16.866Z,11.48
2017-04-03T03:03:57.753Z,11.5
2017-04-03T03:04:38.634Z,11.5
2017-04-03T03:05:19.516Z,11.6
2017-04-03T03:06:00.386Z,11.5
2017-04-03T03:06:41.261Z,11.33
2017-04-03T03:07:22.147Z,11.43
2017-04-03T03:08:03.027Z,11.37
2017-04-03T03:08:43.921Z,11.27
2017-04-03T03:09:24.785Z,11.29
2017-04-03T03:10:05.677Z,11.33
2017-04-03T03:10:46.564Z,11.36
2017-04-03T03:11:27.443Z,11.22
2017-04-03T03:12:08.354Z,11.25
2017-04-03T03:12:49.236Z,11.25
2017-04-03T03:13:30.119Z,11.25
2017-04-03T03:14:10.986Z,11.18
2017-04-03T03:14:51.870Z,11.19
2017-04-03T03:15:32.765Z,11.27
2017-04-03T03:16:13.647Z,11.32
2017-04-03T03:16:54.530Z,11.36
2017-04-03T03:17:35.414Z,11.18
2017-04-03T03:18:16.298Z,11.23
2017-04-03T03:18:57.217Z,11.22
2017-04-03T03:19:38.050Z,11.18
2017-04-03T03:20:18.928Z,11.26
2017-04-03T03:20:59.812Z,11.23
2017-04-03T03:21:40.697Z,11.22
2017-04-03T03:22:21.576Z,11.17
2017-04-03T03:23:02.451Z,11.07
2017-04-03T03:23:43.348Z,11.05
2017-04-03T03:24:24.230Z,11.02
2017-04-03T03:25:05.112Z,11.18
2017-04-03T03:25:45.990Z,11.17
2017-04-03T03:26:26.881Z,11.14
2017-04-03T03:27:07.762Z,11.15
2017-04-03T03:27:48.644Z,11.1
2017-04-03T03:28:29.526Z,11.22
2017-04-03T03:29:10.421Z,11.11
2017-04-03T03:29:51.298Z,11.14
2017-04-03T03:30:32.187Z,11.19
2017-04-03T03:31:13.057Z,10.97
2017-04-03T03:31:53.937Z,11.11
2017-04-03T03:32:34.824Z,11.12
2017-04-03T03:33:15.710Z,11.11
2017-04-03T03:33:56.591Z,11
2017-04-03T03:34:37.471Z,11
2017-04-03T03:35:18.356Z,10.86
2017-04-03T03:35:59.240Z,11.02
2017-04-03T03:36:40.115Z,10.86
2017-04-03T03:37:20.983Z,10.9
2017-04-03T03:38:01.873Z,10.94
2017-04-03T03:38:42.775Z,10.82
2017-04-03T03:39:23.654Z,10.97
2017-04-03T03:40:04.537Z,10.79
2017-04-03T03:40:45.431Z,10.79
2017-04-03T03:41:26.310Z,10.75
2017-04-03T03:42:07.199Z,10.71
2017-04-03T03:42:48.080Z,10.76
2017-04-03T03:43:28.955Z,10.68
2017-04-03T03:44:09.843Z,10.67
2017-04-03T03:44:50.719Z,10.6
2017-04-03T03:45:31.604Z,10.57
2017-04-03T03:46:12.488Z,10.49
2017-04-03T03:46:53.371Z,10.54
2017-04-03T03:47:34.246Z,10.48
2017-04-03T03:48:15.134Z,10.54
2017-04-03T03:48:56.015Z,10.51
2017-04-03T03:49:36.897Z,10.44
2017-04-03T03:50:17.775Z,10.37
2017-04-03T03:50:58.651Z,10.53
2017-04-03T03:51:39.536Z,10.38
2017-04-03T03:52:20.421Z,10.53
2017-04-03T03:53:01.299Z,10.38
2017-04-03T03:53:42.188Z,10.56
2017-04-03T03:54:23.069Z,10.67
2017-04-03T03:55:03.951Z,10.59
2017-04-03T03:55:44.831Z,10.53
2017-04-03T03:56:25.721Z,10.42
2017-04-03T03:57:06.605Z,10.48
2017-04-03T03:57:47.487Z,10.48
2017-04-03T03:58:28.369Z,10.53
2017-04-03T03:59:09.260Z,10.53
2017-04-03T03:59:50.144Z,10.41
2017-04-03T04:00:31.019Z,10.38
2017-04-03T04:01:11.899Z,10.35
2017-04-03T04:01:52.780Z,10.38
2017-04-03T04:02:33.661Z,10.41
2017-04-03T04:03:14.553Z,10.38
2017-04-03T04:03:55.434Z,10.46
2017-04-03T04:04:36.313Z,10.41
2017-04-03T04:05:17.226Z,10.41
2017-04-03T04:05:58.063Z,10.48
2017-04-03T04:06:38.946Z,10.38
2017-04-03T04:07:19.822Z,10.37
2017-04-03T04:08:00.704Z,10.42
2017-04-03T04:08:41.587Z,10.46
2017-04-03T04:09:22.471Z,10.4
2017-04-03T04:10:03.359Z,10.4
2017-04-03T04:10:44.234Z,10.49
2017-04-03T04:11:25.118Z,10.49
2017-04-03T04:12:06.008Z,10.48
2017-04-03T04:12:46.888Z,10.38
2017-04-03T04:13:27.770Z,10.4
2017-04-03T04:14:08.653Z,10.2
2017-04-03T04:14:49.539Z,10.19
2017-04-03T04:15:30.424Z,10.22
2017-04-03T04:16:11.303Z,10.13
2017-04-03T04:16:52.182Z,10.2
2017-04-03T04:17:33.058Z,10.19
2017-04-03T04:18:13.936Z,10.09
2017-04-03T04:18:54.825Z,10.16
2017-04-03T04:19:35.703Z,10.13
2017-04-03T04:20:16.577Z,10.09
2017-04-03T04:20:57.463Z,10.04
2017-04-03T04:21:38.347Z,9.91
2017-04-03T04:22:19.237Z,9.94
2017-04-03T04:23:00.116Z,9.69
2017-04-03T04:23:41.003Z,9.5
2017-04-03T04:24:21.885Z,9.55
2017-04-03T04:25:02.754Z,9.56
2017-04-03T04:25:43.637Z,9.58
2017-04-03T04:26:24.524Z,9.48
2017-04-03T04:27:05.413Z,9.56
2017-04-03T04:27:46.291Z,9.37
2017-04-03T04:28:27.177Z,9.44
2017-04-03T04:29:08.074Z,9.47
2017-04-03T04:29:48.950Z,9.54
2017-04-03T04:30:29.829Z,9.46
2017-04-03T04:31:10.712Z,9.37
2017-04-03T04:31:51.595Z,9.21
2017-04-03T04:32:32.481Z,9.23
2017-04-03T04:33:13.361Z,9.21
2017-04-03T04:33:54.242Z,9.21
2017-04-03T04:34:35.129Z,9.23
2017-04-03T04:35:16.011Z,9.1
2017-04-03T04:35:56.892Z,9.13
2017-04-03T04:36:37.777Z,9.13
2017-04-03T04:37:18.647Z,9.1
2017-04-03T04:37:59.539Z,9.14
2017-04-03T04:38:40.419Z,9.04
2017-04-03T04:39:21.300Z,8.99
2017-04-03T04:40:02.190Z,8.92
2017-04-03T04:40:43.072Z,9.08
2017-04-03T04:41:23.949Z,8.91
2017-04-03T04:42:04.829Z,9.02
2017-04-03T04:42:45.710Z,9.14
2017-04-03T04:43:26.597Z,9.22
2017-04-03T04:44:07.476Z,9.39
2017-04-03T04:44:48.355Z,9.44
2017-04-03T04:45:29.233Z,9.31
2017-04-03T04:46:10.127Z,9.22
2017-04-03T04:46:51.006Z,9.21
2017-04-03T04:47:31.887Z,9.1
2017-04-03T04:48:12.767Z,8.97
2017-04-03T04:48:53.651Z,8.99
2017-04-03T04:49:34.529Z,8.78
2017-04-03T04:50:15.413Z,8.69
2017-04-03T04:50:56.285Z,8.74
2017-04-03T04:51:37.166Z,9
2017-04-03T04:52:18.045Z,9.06
2017-04-03T04:52:58.928Z,9
2017-04-03T04:53:39.861Z,8.99
2017-04-03T04:54:20.750Z,9.25
2017-04-03T04:55:01.625Z,9.32
2017-04-03T04:55:42.509Z,9.44
2017-04-03T04:56:23.394Z,9.43
2017-04-03T04:57:04.300Z,9.4
2017-04-03T04:57:45.162Z,9.36
2017-04-03T04:58:26.083Z,9.31
2017-04-03T04:59:06.926Z,9.47
2017-04-03T04:59:47.798Z,9.4
2017-04-03T05:00:28.683Z,9.43
2017-04-03T05:01:09.562Z,9.4
2017-04-03T05:01:50.449Z,9.34
2017-04-03T05:02:31.329Z,9.44
2017-04-03T05:03:12.204Z,9.5
2017-04-03T05:03:53.088Z,9.29
2017-04-03T05:04:33.983Z,9.25
2017-04-03T05:05:14.869Z,9.26
2017-04-03T05:05:55.747Z,9.36
2017-04-03T05:06:36.650Z,9.31
2017-04-03T05:07:17.510Z,9.39
2017-04-03T05:07:58.394Z,9.43
2017-04-03T05:08:39.282Z,9.32
2017-04-03T05:09:20.155Z,9.41
2017-04-03T05:10:01.034Z,9.43
2017-04-03T05:10:41.923Z,9.55
2017-04-03T05:11:22.806Z,9.58
2017-04-03T05:12:03.683Z,9.55
2017-04-03T05:12:44.568Z,9.44
2017-04-03T05:13:25.460Z,9.46
2017-04-03T05:14:06.340Z,9.55
2017-04-03T05:14:47.228Z,9.47
2017-04-03T05:15:28.167Z,9.5
2017-04-03T05:16:09.081Z,9.43
2017-04-03T05:16:49.959Z,9.5
2017-04-03T05:17:30.839Z,9.5
2017-04-03T05:18:11.726Z,9.48
2017-04-03T05:18:52.615Z,9.44
2017-04-03T05:19:33.495Z,9.51
2017-04-03T05:20:14.387Z,9.44
2017-04-03T05:20:55.290Z,9.51
2017-04-03T05:21:36.180Z,9.56
2017-04-03T05:22:17.052Z,9.58
2017-04-03T05:22:57.933Z,9.69
2017-04-03T05:23:38.821Z,9.55
2017-04-03T05:24:19.798Z,9.61
2017-04-03T05:25:00.615Z,9.62
2017-04-03T05:25:41.502Z,9.72
2017-04-03T05:26:22.390Z,9.62
2017-04-03T05:27:03.270Z,9.66
2017-04-03T05:27:44.155Z,9.66
2017-04-03T05:28:25.049Z,9.87
2017-04-03T05:29:05.937Z,9.98
2017-04-03T05:29:46.809Z,10.04
2017-04-03T05:30:27.687Z,10.07
2017-04-03T05:31:08.616Z,10.15
2017-04-03T05:31:49.507Z,10.07
2017-04-03T05:32:30.402Z,10.12
2017-04-03T05:33:11.288Z,10.13
2017-04-03T05:33:52.164Z,10.02
2017-04-03T05:34:33.050Z,9.99
2017-04-03T05:35:13.934Z,9.79
2017-04-03T05:35:54.814Z,9.77
2017-04-03T05:36:35.698Z,9.89
2017-04-03T05:37:16.578Z,9.86
2017-04-03T05:37:57.461Z,9.68
2017-04-03T05:38:38.342Z,9.73
2017-04-03T05:39:19.221Z,9.65
2017-04-03T05:40:00.103Z,9.62
2017-04-03T05:40:40.984Z,9.64
2017-04-03T05:41:21.886Z,9.72
2017-04-03T05:42:02.744Z,9.87
2017-04-03T05:42:43.705Z,9.92
2017-04-03T05:43:24.613Z,9.92
2017-04-03T05:44:05.536Z,9.91
2017-04-03T05:44:46.459Z,9.95
2017-04-03T05:45:27.328Z,9.92
2017-04-03T05:46:08.209Z,9.86
2017-04-03T05:46:49.092Z,10.02
2017-04-03T05:47:29.974Z,10.05
2017-04-03T05:48:10.861Z,10.13
2017-04-03T05:49:38.946Z,10.12
2017-04-03T05:50:19.875Z,10.25
2017-04-03T05:51:00.753Z,10.1
2017-04-03T05:51:41.638Z,10.22
2017-04-03T05:52:22.520Z,10.2
2017-04-03T05:53:03.397Z,10.2
2017-04-03T05:53:44.258Z,10.12
2017-04-03T05:54:25.137Z,10.13
2017-04-03T05:55:06.050Z,10.16
2017-04-03T05:55:46.932Z,10.19
2017-04-03T05:56:27.828Z,10.1
2017-04-03T05:57:08.708Z,10.19
2017-04-03T05:57:49.591Z,10.19
2017-04-03T05:58:30.471Z,10.2
2017-04-03T05:59:11.345Z,10.26
2017-04-03T05:59:52.282Z,10.19
2017-04-03T06:00:33.141Z,10.31
2017-04-03T06:01:14.012Z,10.38
2017-04-03T06:01:54.895Z,10.35
2017-04-03T06:02:35.770Z,10.28
2017-04-03T06:03:16.656Z,10.09
2017-04-03T06:03:57.535Z,10.01
2017-04-03T06:04:38.399Z,10.13
2017-04-03T06:05:19.272Z,10.22
2017-04-03T06:06:00.143Z,10.3
2017-04-03T06:06:41.031Z,10.28
2017-04-03T06:07:21.922Z,10.2
2017-04-03T06:08:02.805Z,10.28
2017-04-03T06:08:43.694Z,10.38
2017-04-03T06:09:24.573Z,10.35
2017-04-03T06:10:05.463Z,10.2
2017-04-03T06:10:46.337Z,10.22
2017-04-03T06:11:27.214Z,10.28
2017-04-03T06:12:08.092Z,10.28
2017-04-03T06:12:48.972Z,10.31
2017-04-03T06:13:29.849Z,10.37
2017-04-03T06:14:10.728Z,10.41
2017-04-03T06:14:51.617Z,10.37
2017-04-03T06:15:32.501Z,10.38
2017-04-03T06:16:13.382Z,10.38
2017-04-03T06:16:54.260Z,10.34
2017-04-03T06:17:35.143Z,10.37
2017-04-03T06:18:16.031Z,10.33
2017-04-03T06:18:56.954Z,10.35
2017-04-03T06:19:37.791Z,10.42
2017-04-03T06:20:18.682Z,10.46
2017-04-03T06:20:59.560Z,10.37
2017-04-03T06:21:40.429Z,10.38
2017-04-03T06:22:21.343Z,10.38
2017-04-03T06:23:02.232Z,10.41
2017-04-03T06:23:43.122Z,10.44
2017-04-03T06:24:24.005Z,10.42
2017-04-03T06:25:04.888Z,10.56
2017-04-03T06:25:45.763Z,10.53
2017-04-03T06:26:26.654Z,10.53
2017-04-03T06:27:07.541Z,10.6
2017-04-03T06:27:48.454Z,10.64
2017-04-03T06:28:29.307Z,10.61
2017-04-03T06:29:10.189Z,10.68
2017-04-03T06:29:51.080Z,10.53
2017-04-03T06:30:31.965Z,10.57
2017-04-03T06:31:12.850Z,10.69
2017-04-03T06:31:53.732Z,10.74
2017-04-03T06:32:34.616Z,10.64
2017-04-03T06:33:15.488Z,10.63
2017-04-03T06:33:56.372Z,10.6
2017-04-03T06:34:37.254Z,10.71
2017-04-03T06:35:18.136Z,10.63
2017-04-03T06:35:59.016Z,10.41
2017-04-03T06:36:39.907Z,10.56
2017-04-03T06:37:20.790Z,10.53
2017-04-03T06:38:01.674Z,10.56
2017-04-03T06:38:42.573Z,10.53
2017-04-03T06:39:23.459Z,10.46
2017-04-03T06:40:04.334Z,10.48
2017-04-03T06:40:45.218Z,10.57
2017-04-03T06:41:26.100Z,10.56
2017-04-03T06:42:06.976Z,10.6
2017-04-03T06:42:47.879Z,10.41
2017-04-03T06:43:28.756Z,10.42
2017-04-03T06:44:09.648Z,10.57
2017-04-03T06:44:50.542Z,10.59
2017-04-03T06:45:31.421Z,10.61
2017-04-03T06:46:12.294Z,10.54
2017-04-03T06:46:53.203Z,10.63
2017-04-03T06:47:34.089Z,10.74
2017-04-03T06:48:14.959Z,10.76
2017-04-03T06:48:55.850Z,10.75
2017-04-03T06:49:36.734Z,10.82
2017-04-03T06:50:17.617Z,10.87
2017-04-03T06:50:58.498Z,10.94
2017-04-03T06:51:39.405Z,10.84
2017-04-03T06:53:07.498Z,10.81
2017-04-03T06:53:48.426Z,10.72
2017-04-03T06:54:29.311Z,10.75
2017-04-03T06:55:10.184Z,10.71
2017-04-03T06:55:51.057Z,10.64
2017-04-03T06:56:31.942Z,10.64
2017-04-03T06:57:12.827Z,10.72
2017-04-03T06:57:53.709Z,10.75
2017-04-03T06:58:34.583Z,10.68
2017-04-03T06:59:15.461Z,10.56
2017-04-03T06:59:56.342Z,10.57
2017-04-03T07:00:37.223Z,10.46
2017-04-03T07:01:18.107Z,10.38
2017-04-03T07:02:46.209Z,10.51
2017-04-03T07:03:27.096Z,10.54
2017-04-03T07:04:07.982Z,10.67
2017-04-03T07:04:48.864Z,10.72
2017-04-03T07:05:29.750Z,10.69
2017-04-03T07:06:10.628Z,10.68
2017-04-03T07:06:51.516Z,10.54
2017-04-03T07:07:32.399Z,10.6
2017-04-03T07:08:13.277Z,10.75
2017-04-03T07:08:54.212Z,10.74
2017-04-03T07:09:35.091Z,10.74
2017-04-03T07:10:15.980Z,10.86
2017-04-03T07:10:56.865Z,10.93
2017-04-03T07:11:37.746Z,10.97
2017-04-03T07:12:18.626Z,10.94
2017-04-03T07:12:59.513Z,10.94
2017-04-03T07:13:40.398Z,10.84
2017-04-03T07:14:21.270Z,10.69
2017-04-03T07:15:02.150Z,10.59
2017-04-03T07:15:43.022Z,10.56
2017-04-03T07:16:23.914Z,10.64
2017-04-03T07:17:04.783Z,10.6
2017-04-03T07:17:45.662Z,10.67
2017-04-03T07:18:26.567Z,10.63
2017-04-03T07:19:07.457Z,10.63
2017-04-03T07:19:48.322Z,10.72
2017-04-03T07:20:29.199Z,10.64
2017-04-03T07:21:10.093Z,10.68
2017-04-03T07:21:50.963Z,10.64
2017-04-03T07:22:31.859Z,10.75
2017-04-03T07:23:12.745Z,10.74
2017-04-03T07:23:53.635Z,10.64
2017-04-03T07:24:34.516Z,10.64
2017-04-03T07:25:15.392Z,10.68
2017-04-03T07:25:56.274Z,10.59
2017-04-03T07:26:37.159Z,10.64
2017-04-03T07:27:18.041Z,10.71
2017-04-03T07:27:58.924Z,10.67
2017-04-03T07:28:39.806Z,10.87
2017-04-03T07:29:20.706Z,10.9
2017-04-03T07:30:01.582Z,10.86
2017-04-03T07:30:42.463Z,10.86
2017-04-03T07:31:23.340Z,10.86
2017-04-03T07:32:04.221Z,10.86
2017-04-03T07:32:45.109Z,10.93
2017-04-03T07:33:26.015Z,10.84
2017-04-03T07:34:06.922Z,10.9
2017-04-03T07:34:47.778Z,10.97
2017-04-03T07:35:28.665Z,11.02
2017-04-03T07:36:09.543Z,11.07
2017-04-03T07:36:50.430Z,11.15
2017-04-03T07:37:31.316Z,11.17
2017-04-03T07:38:12.196Z,11.05
2017-04-03T07:38:53.068Z,11.1
2017-04-03T07:39:33.947Z,11.05
2017-04-03T07:40:14.831Z,10.97
2017-04-03T07:40:55.712Z,11.14
2017-04-03T07:41:36.592Z,11.11
2017-04-03T07:42:17.471Z,10.97
2017-04-03T07:42:58.361Z,11.08
2017-04-03T07:43:39.241Z,11.02
2017-04-03T07:44:20.126Z,11.14
2017-04-03T07:45:01.007Z,11.1
2017-04-03T07:45:41.889Z,11.08
2017-04-03T07:46:22.780Z,11.05
2017-04-03T07:47:03.663Z,11
2017-04-03T07:47:44.541Z,11.07
2017-04-03T07:48:25.420Z,11.07
2017-04-03T07:49:06.296Z,11.15
2017-04-03T07:49:47.192Z,11.07
2017-04-03T07:50:28.069Z,11.17
2017-04-03T07:51:08.953Z,11.04
2017-04-03T07:51:49.849Z,11.08
2017-04-03T07:52:30.726Z,11.1
2017-04-03T07:53:11.605Z,11.07
2017-04-03T07:53:52.490Z,11.14
2017-04-03T07:54:33.375Z,11.05
2017-04-03T07:55:14.242Z,10.96
2017-04-03T07:55:55.123Z,11
2017-04-03T07:56:36.023Z,10.99
2017-04-03T07:57:16.907Z,10.97
2017-04-03T07:57:57.819Z,10.76
2017-04-03T07:58:38.698Z,10.78
2017-04-03T07:59:19.577Z,10.81
2017-04-03T08:00:00.465Z,10.71
2017-04-03T08:00:41.341Z,10.71
2017-04-03T08:01:22.233Z,10.72
2017-04-03T08:02:03.112Z,10.74
2017-04-03T08:02:43.999Z,10.82
2017-04-03T08:03:24.882Z,10.89
2017-04-03T08:04:05.765Z,10.97
2017-04-03T08:04:46.650Z,11
2017-04-03T08:05:27.534Z,11.08
2017-04-03T08:06:08.405Z,11
2017-04-03T08:06:49.280Z,10.99
2017-04-03T08:07:30.163Z,11.02
2017-04-03T08:08:11.044Z,10.94
2017-04-03T08:08:51.929Z,11.1
2017-04-03T08:09:32.792Z,10.99
2017-04-03T08:10:13.667Z,11.12
2017-04-03T08:10:54.550Z,11.12
2017-04-03T08:11:35.428Z,11.14
2017-04-03T08:12:16.307Z,11.1
2017-04-03T08:12:57.189Z,11.14
2017-04-03T08:13:38.068Z,11.15
2017-04-03T08:14:18.954Z,11.04
2017-04-03T08:14:59.834Z,11.05
2017-04-03T08:15:40.715Z,11.08
2017-04-03T08:16:21.589Z,11.05
2017-04-03T08:17:02.470Z,11.1
2017-04-03T08:17:43.363Z,11.1
2017-04-03T08:18:24.250Z,11.11
2017-04-03T08:19:05.126Z,11.08
2017-04-03T08:19:46.014Z,10.96
2017-04-03T08:20:26.903Z,10.87
2017-04-03T08:21:07.778Z,10.75
2017-04-03T08:21:48.652Z,10.78
2017-04-03T08:22:29.537Z,10.84
2017-04-03T08:23:10.434Z,10.89
2017-04-03T08:23:51.354Z,11.02
2017-04-03T08:24:32.236Z,10.92
2017-04-03T08:25:13.123Z,10.79
2017-04-03T08:25:53.998Z,10.81
2017-04-03T08:26:34.873Z,10.86
2017-04-03T08:27:15.766Z,10.84
2017-04-03T08:27:56.649Z,10.84
2017-04-03T08:28:37.530Z,10.96
2017-04-03T08:29:18.429Z,11.02
2017-04-03T08:29:59.313Z,11
2017-04-03T08:30:40.196Z,10.96
2017-04-03T08:31:21.074Z,10.93
2017-04-03T08:32:01.957Z,10.94
2017-04-03T08:32:42.837Z,10.97
2017-04-03T08:33:23.780Z,10.99
2017-04-03T08:34:04.659Z,10.99
2017-04-03T08:34:45.537Z,11.07
2017-04-03T08:35:26.392Z,11.04
2017-04-03T08:36:07.275Z,11.07
2017-04-03T08:36:48.144Z,11.15
2017-04-03T08:37:29.023Z,11.05
2017-04-03T08:38:09.905Z,11.1
2017-04-03T08:38:50.792Z,11.18
2017-04-03T08:39:31.672Z,11.18
2017-04-03T08:40:12.561Z,11.1
2017-04-03T08:40:53.454Z,11.12
2017-04-03T08:41:34.329Z,11.14
2017-04-03T08:42:15.210Z,11.08
2017-04-03T08:42:56.092Z,11.14
2017-04-03T08:43:36.982Z,11.12
2017-04-03T08:44:17.886Z,11.23
2017-04-03T08:44:58.766Z,11.17
2017-04-03T08:45:39.658Z,11.11
2017-04-03T08:46:20.534Z,11.14
2017-04-03T08:47:01.407Z,11.25
2017-04-03T08:47:42.299Z,11.14
2017-04-03T08:48:23.182Z,11.12
2017-04-03T08:49:04.064Z,11.14
2017-04-03T08:49:44.941Z,11.07
2017-04-03T08:50:25.823Z,11.14
2017-04-03T08:51:06.704Z,11.19
2017-04-03T08:51:47.601Z,11.19
2017-04-03T08:52:28.465Z,11.18
2017-04-03T08:53:09.351Z,11.22
2017-04-03T08:53:50.238Z,11.18
2017-04-03T08:54:31.117Z,11.19
2017-04-03T08:55:11.997Z,10.92